Time;durP1;ratioP1;P1;durP2;ratioP2;P2;SDS_P1;SDS_P2;PMS_P1;PMS_P2;Temp;Humidity;BMP_temperature;BMP_pressure;BME280_temperature;BME280_humidity;BME280_pressure;Samples;Min_cycle;Max_cycle;Signal;HPM_P1;HPM_P2
2021/12/13 00:01:44;;;;;;;26.58;12.70;;;;;;;;;;4998116;28;20056;-73
2021/12/13 00:04:10;;;;;;;21.13;10.18;;;;;;;;;;4997693;28;20026;-73
2021/12/13 00:06:48;;;;;;;19.67;9.93;;;;;;;;;;4993499;28;20038;-73
2021/12/13 00:09:16;;;;;;;16.05;8.30;;;;;;;;;;5064766;28;20043;-73
2021/12/13 00:11:45;;;;;;;14.23;8.63;;;;;;;;;;5068840;28;20037;-73
2021/12/13 00:14:18;;;;;;;16.27;8.60;;;;;;;;;;5068007;28;20025;-73
2021/12/13 00:16:46;;;;;;;14.80;7.68;;;;;;;;;;5068311;28;20030;-73
2021/12/13 00:19:16;;;;;;;19.63;8.73;;;;;;;;;;5068173;28;20027;-73
2021/12/13 00:21:45;;;;;;;12.73;7.05;;;;;;;;;;5052586;28;20040;-73
2021/12/13 00:24:14;;;;;;;14.32;7.28;;;;;;;;;;5067215;28;20091;-73
2021/12/13 00:26:45;;;;;;;14.63;7.85;;;;;;;;;;5069886;28;20045;-73
2021/12/13 00:29:11;;;;;;;;;;;;;;;;;;5069003;28;20024;-73
2021/12/13 00:31:45;;;;;;;14.63;7.28;;;;;;;;;;5071772;28;19914;-73
2021/12/13 00:34:20;;;;;;;10.65;6.15;;;;;;;;;;5071558;28;20034;-73
2021/12/13 00:37:07;;;;;;;9.32;6.10;;;;;;;;;;5056194;28;20031;-73
2021/12/13 00:39:36;;;;;;;10.15;6.30;;;;;;;;;;5073204;28;20484;-73
2021/12/13 00:42:04;;;;;;;10.48;6.10;;;;;;;;;;5073885;28;20048;-73
2021/12/13 00:44:33;;;;;;;13.07;6.35;;;;;;;;;;5071581;28;20036;-73
2021/12/13 00:47:02;;;;;;;9.13;5.57;;;;;;;;;;5071427;28;20050;-73
2021/12/13 00:49:30;;;;;;;10.35;5.90;;;;;;;;;;5072757;28;20020;-73
2021/12/13 00:51:58;;;;;;;11.27;6.22;;;;;;;;;;5070949;28;20043;-73
2021/12/13 00:54:27;;;;;;;9.90;5.68;;;;;;;;;;5073717;28;20381;-73
2021/12/13 00:56:56;;;;;;;14.25;7.18;;;;;;;;;;5072515;28;20515;-73
2021/12/13 00:59:28;;;;;;;11.27;6.03;;;;;;;;;;5071154;28;20039;-74
2021/12/13 01:01:57;;;;;;;15.20;6.88;;;;;;;;;;5071151;28;20058;-73
2021/12/13 01:04:43;;;;;;;10.55;5.40;;;;;;;;;;5069951;28;20024;-73
2021/12/13 01:07:36;;;;;;;13.07;5.45;;;;;;;;;;5070882;28;20019;-73
2021/12/13 01:10:18;;;;;;;12.88;6.82;;;;;;;;;;5057944;28;20021;-73
2021/12/13 01:12:46;;;;;;;14.90;7.53;;;;;;;;;;5054200;28;20023;-73
2021/12/13 01:15:16;;;;;;;7.63;5.18;;;;;;;;;;5074036;28;20043;-73
2021/12/13 01:20:33;;;;;;;10.95;4.72;;;;;;;;;;5070558;28;20021;-73
2021/12/13 01:23:05;;;;;;;8.77;4.85;;;;;;;;;;5070874;28;20032;-73
2021/12/13 01:28:12;;;;;;;8.15;4.72;;;;;;;;;;5072037;28;20485;-73
2021/12/13 01:30:41;;;;;;;10.55;5.47;;;;;;;;;;5071367;28;20490;-73
2021/12/13 01:33:09;;;;;;;9.10;5.15;;;;;;;;;;5073681;28;20017;-73
2021/12/13 01:35:39;;;;;;;9.88;5.65;;;;;;;;;;5070374;28;20025;-73
2021/12/13 01:38:17;;;;;;;10.93;5.80;;;;;;;;;;5070638;28;20028;-73
2021/12/13 01:40:49;;;;;;;10.43;6.13;;;;;;;;;;5069691;28;20025;-74
2021/12/13 01:43:18;;;;;;;11.95;6.07;;;;;;;;;;5069303;28;20385;-73
2021/12/13 01:45:46;;;;;;;12.25;6.07;;;;;;;;;;5053442;28;20105;-73
2021/12/13 01:48:17;;;;;;;12.93;5.82;;;;;;;;;;5073646;28;20085;-73
2021/12/13 01:50:48;;;;;;;;;;;;;;;;;;5071039;28;20025;-73
2021/12/13 01:53:16;;;;;;;8.10;5.35;;;;;;;;;;5069972;28;19908;-73
2021/12/13 01:55:46;;;;;;;9.90;5.70;;;;;;;;;;5070289;28;20447;-73
2021/12/13 01:58:46;;;;;;;9.50;5.07;;;;;;;;;;5070277;28;20021;-73
2021/12/13 02:01:11;;;;;;;24.05;9.40;;;;;;;;;;5055989;28;20040;-74
2021/12/13 02:03:43;;;;;;;15.18;7.38;;;;;;;;;;5070816;28;20478;-74
2021/12/13 02:06:11;;;;;;;21.65;8.70;;;;;;;;;;5073452;28;20032;-73
2021/12/13 02:08:37;;;;;;;14.38;6.90;;;;;;;;;;5071018;28;20033;-73
2021/12/13 02:11:06;;;;;;;11.75;6.18;;;;;;;;;;5069593;28;20039;-73
2021/12/13 02:13:41;;;;;;;9.68;5.43;;;;;;;;;;5069978;28;20401;-73
2021/12/13 02:18:57;;;;;;;8.63;5.03;;;;;;;;;;5055200;28;20024;-74
2021/12/13 02:21:30;;;;;;;7.30;4.22;;;;;;;;;;5071987;28;20029;-73
2021/12/13 02:23:59;;;;;;;10.57;4.95;;;;;;;;;;5071223;28;20040;-73
2021/12/13 02:26:27;;;;;;;7.43;4.00;;;;;;;;;;5069513;28;20030;-73
2021/12/13 02:29:00;;;;;;;6.97;4.43;;;;;;;;;;5069619;28;20392;-74
2021/12/13 02:31:29;;;;;;;5.80;4.22;;;;;;;;;;5069071;28;20024;-73
2021/12/13 02:34:16;;;;;;;6.05;3.90;;;;;;;;;;5069221;28;20021;-73
2021/12/13 02:36:44;;;;;;;4.82;3.38;;;;;;;;;;5053980;28;20114;-73
2021/12/13 02:39:14;;;;;;;5.30;3.85;;;;;;;;;;5068330;28;20031;-73
2021/12/13 02:41:41;;;;;;;10.65;4.55;;;;;;;;;;5070883;28;20114;-73
2021/12/13 02:44:12;;;;;;;7.22;3.28;;;;;;;;;;5069263;28;20101;-73
2021/12/13 02:46:39;;;;;;;5.90;3.60;;;;;;;;;;5070433;28;20017;-73
2021/12/13 02:49:11;;;;;;;5.93;3.30;;;;;;;;;;5068551;28;20031;-73
2021/12/13 02:51:39;;;;;;;9.75;3.65;;;;;;;;;;5069001;28;20037;-73
2021/12/13 02:54:06;;;;;;;6.00;3.58;;;;;;;;;;5071965;28;20029;-73
2021/12/13 02:56:34;;;;;;;7.65;3.90;;;;;;;;;;5068992;28;20021;-73
2021/12/13 02:59:01;;;;;;;9.60;4.65;;;;;;;;;;5069073;28;20025;-73
2021/12/13 03:01:39;;;;;;;8.15;3.65;;;;;;;;;;5068909;28;20037;-73
2021/12/13 03:04:08;;;;;;;8.43;3.60;;;;;;;;;;5069096;28;20478;-73
2021/12/13 03:06:37;;;;;;;6.60;3.58;;;;;;;;;;5070375;28;20025;-74
2021/12/13 03:09:09;;;;;;;5.32;3.15;;;;;;;;;;5070264;28;20360;-73
2021/12/13 03:11:36;;;;;;;4.85;3.20;;;;;;;;;;5068794;28;20363;-73
2021/12/13 03:14:08;;;;;;;5.07;3.22;;;;;;;;;;5068943;28;20016;-73
2021/12/13 03:16:42;;;;;;;8.15;3.85;;;;;;;;;;5068418;28;20036;-73
2021/12/13 03:19:11;;;;;;;10.77;5.28;;;;;;;;;;5068812;28;20016;-73
2021/12/13 03:21:46;;;;;;;8.93;4.75;;;;;;;;;;5069666;28;20498;-73
2021/12/13 03:24:26;;;;;;;11.48;5.68;;;;;;;;;;5068235;28;20035;-74
2021/12/13 03:27:02;;;;;;;7.20;3.88;;;;;;;;;;5071972;28;20439;-73
2021/12/13 03:29:48;;;;;;;5.30;3.63;;;;;;;;;;5068363;28;20404;-73
2021/12/13 03:32:16;;;;;;;8.05;4.35;;;;;;;;;;5058127;28;20502;-73
2021/12/13 03:34:45;;;;;;;9.93;5.63;;;;;;;;;;5068713;28;20023;-73
2021/12/13 03:37:14;;;;;;;6.75;4.05;;;;;;;;;;5067392;28;20089;-74
2021/12/13 03:39:45;;;;;;;5.40;3.00;;;;;;;;;;5069182;28;20028;-73
2021/12/13 03:42:32;;;;;;;4.97;2.85;;;;;;;;;;5067949;28;20040;-73
2021/12/13 03:45:00;;;;;;;6.00;3.35;;;;;;;;;;5034023;28;20044;-73
2021/12/13 03:47:34;;;;;;;5.22;3.13;;;;;;;;;;5030690;28;20038;-74
2021/12/13 03:50:02;;;;;;;4.88;3.10;;;;;;;;;;5030976;28;20371;-73
2021/12/13 03:52:30;;;;;;;3.40;2.60;;;;;;;;;;5030839;28;20037;-73
2021/12/13 03:54:59;;;;;;;9.15;3.13;;;;;;;;;;5028068;28;20049;-73
2021/12/13 03:57:25;;;;;;;4.15;2.95;;;;;;;;;;5031129;28;20148;-73
2021/12/13 03:59:52;;;;;;;5.05;2.85;;;;;;;;;;5031382;28;20034;-74
2021/12/13 04:02:26;;;;;;;7.90;3.55;;;;;;;;;;5030685;28;20550;-73
2021/12/13 04:04:54;;;;;;;4.70;3.03;;;;;;;;;;5033884;28;20092;-73
2021/12/13 04:07:32;;;;;;;5.45;3.33;;;;;;;;;;5034382;28;20036;-73
2021/12/13 04:10:00;;;;;;;5.20;3.33;;;;;;;;;;5032124;28;20029;-73
2021/12/13 04:12:34;;;;;;;6.10;3.47;;;;;;;;;;5034602;28;20043;-73
2021/12/13 04:15:12;;;;;;;5.60;3.60;;;;;;;;;;5036047;28;20037;-73
2021/12/13 04:20:14;;;;;;;4.75;3.20;;;;;;;;;;5034538;28;20036;-73
2021/12/13 04:22:46;;;;;;;8.40;3.88;;;;;;;;;;5058687;28;20044;-73
2021/12/13 04:25:15;;;;;;;5.57;3.40;;;;;;;;;;5071975;28;20034;-73
2021/12/13 04:28:04;;;;;;;6.72;3.92;;;;;;;;;;5072103;28;20032;-73
2021/12/13 04:30:33;;;;;;;6.68;4.32;;;;;;;;;;5066609;28;20047;-73
2021/12/13 04:33:03;;;;;;;7.55;5.00;;;;;;;;;;5073520;28;20029;-73
2021/12/13 04:35:30;;;;;;;8.20;5.05;;;;;;;;;;5071669;28;20043;-73
2021/12/13 04:37:58;;;;;;;8.23;5.60;;;;;;;;;;5071592;28;20048;-73
2021/12/13 04:40:28;;;;;;;9.65;5.78;;;;;;;;;;5071737;28;20039;-73
2021/12/13 04:43:01;;;;;;;7.90;4.68;;;;;;;;;;5072973;28;20421;-73
2021/12/13 04:45:30;;;;;;;8.93;5.13;;;;;;;;;;5073301;28;20045;-73
2021/12/13 04:48:06;;;;;;;7.28;4.72;;;;;;;;;;5072904;28;20020;-74
2021/12/13 04:50:46;;;;;;;7.00;4.13;;;;;;;;;;5071453;28;20024;-73
2021/12/13 04:53:21;;;;;;;5.85;3.92;;;;;;;;;;5071403;28;20024;-73
2021/12/13 04:55:48;;;;;;;7.30;4.35;;;;;;;;;;5071326;28;20507;-73
2021/12/13 04:58:16;;;;;;;6.28;4.00;;;;;;;;;;5071247;28;20016;-73
2021/12/13 05:00:45;;;;;;;7.10;3.85;;;;;;;;;;5072053;28;20021;-73
2021/12/13 05:03:12;;;;;;;6.30;3.92;;;;;;;;;;5070261;28;20036;-73
2021/12/13 05:05:39;;;;;;;7.13;4.30;;;;;;;;;;5071137;28;20020;-73
2021/12/13 05:08:07;;;;;;;5.60;3.95;;;;;;;;;;5070671;28;20024;-73
2021/12/13 05:10:34;;;;;;;8.35;4.80;;;;;;;;;;5071456;28;20375;-73
2021/12/13 05:13:02;;;;;;;7.43;3.90;;;;;;;;;;5070873;28;20043;-73
2021/12/13 05:15:29;;;;;;;6.00;3.60;;;;;;;;;;5073396;28;20497;-73
2021/12/13 05:17:56;;;;;;;6.95;3.88;;;;;;;;;;5072184;28;20027;-73
2021/12/13 05:20:25;;;;;;;7.93;4.35;;;;;;;;;;5070900;28;20029;-73
2021/12/13 05:22:57;;;;;;;7.35;4.35;;;;;;;;;;5072224;28;20489;-73
2021/12/13 05:25:31;;;;;;;10.52;5.10;;;;;;;;;;5070629;28;20028;-73
2021/12/13 05:27:59;;;;;;;8.40;5.13;;;;;;;;;;5070543;28;20074;-73
2021/12/13 05:30:26;;;;;;;13.25;5.30;;;;;;;;;;5073047;28;20024;-73
2021/12/13 05:32:55;;;;;;;14.15;6.05;;;;;;;;;;5071767;28;20078;-73
2021/12/13 05:35:23;;;;;;;23.25;8.38;;;;;;;;;;5070745;28;20025;-73
2021/12/13 05:38:00;;;;;;;15.35;7.60;;;;;;;;;;5070478;28;20020;-73
2021/12/13 05:40:27;;;;;;;19.25;6.68;;;;;;;;;;5070677;28;20040;-73
2021/12/13 05:42:58;;;;;;;17.77;5.45;;;;;;;;;;5070207;28;20498;-73
2021/12/13 05:45:31;;;;;;;21.08;10.07;;;;;;;;;;5072464;28;20052;-73
2021/12/13 05:47:59;;;;;;;11.93;5.13;;;;;;;;;;5071773;28;20043;-74
2021/12/13 05:50:32;;;;;;;14.05;5.47;;;;;;;;;;5070379;28;20069;-73
2021/12/13 05:53:05;;;;;;;15.32;5.93;;;;;;;;;;5070283;28;20077;-73
2021/12/13 05:55:31;;;;;;;13.80;5.78;;;;;;;;;;5070340;28;20032;-73
2021/12/13 05:57:58;;;;;;;19.73;6.30;;;;;;;;;;5069298;28;20036;-73
2021/12/13 06:00:28;;;;;;;17.05;6.93;;;;;;;;;;5072024;28;20021;-73
2021/12/13 06:03:08;;;;;;;20.83;8.82;;;;;;;;;;5071662;28;20097;-73
2021/12/13 06:05:34;;;;;;;23.05;10.27;;;;;;;;;;5069850;28;20032;-73
2021/12/13 06:08:07;;;;;;;22.90;9.80;;;;;;;;;;5069991;28;20077;-73
2021/12/13 06:10:57;;;;;;;26.83;9.38;;;;;;;;;;5069752;28;20425;-73
2021/12/13 06:13:39;;;;;;;16.33;8.63;;;;;;;;;;5064966;28;20039;-73
2021/12/13 06:16:06;;;;;;;19.77;9.45;;;;;;;;;;5069920;28;20030;-73
2021/12/13 06:18:43;;;;;;;21.73;9.88;;;;;;;;;;5071479;28;20020;-73
2021/12/13 06:21:18;;;;;;;27.65;13.63;;;;;;;;;;5068708;28;20020;-73
2021/12/13 06:23:47;;;;;;;25.50;10.68;;;;;;;;;;5070504;28;20505;-73
2021/12/13 06:26:14;;;;;;;19.70;9.43;;;;;;;;;;5067856;28;20015;-73
2021/12/13 06:28:42;;;;;;;15.98;8.63;;;;;;;;;;5069059;28;20027;-73
2021/12/13 06:31:10;;;;;;;15.65;7.43;;;;;;;;;;5069503;28;20432;-72
2021/12/13 06:33:51;;;;;;;15.35;6.88;;;;;;;;;;5070617;28;20029;-73
2021/12/13 06:36:29;;;;;;;21.75;7.70;;;;;;;;;;5069150;28;20035;-73
2021/12/13 06:38:57;;;;;;;18.60;8.02;;;;;;;;;;5070764;28;20028;-74
2021/12/13 06:41:27;;;;;;;28.55;9.70;;;;;;;;;;5070182;28;20031;-73
2021/12/13 06:43:55;;;;;;;25.33;9.75;;;;;;;;;;5068867;28;20485;-73
2021/12/13 06:46:24;;;;;;;22.50;8.70;;;;;;;;;;5069410;28;20024;-73
2021/12/13 06:48:59;;;;;;;21.60;8.40;;;;;;;;;;5068134;28;20027;-74
2021/12/13 06:51:44;;;;;;;29.55;9.70;;;;;;;;;;5071764;28;20035;-73
2021/12/13 06:54:13;;;;;;;24.33;9.32;;;;;;;;;;5072171;28;20117;-73
2021/12/13 06:56:40;;;;;;;25.85;9.90;;;;;;;;;;5070667;28;20113;-73
2021/12/13 06:59:08;;;;;;;25.75;9.73;;;;;;;;;;5068847;28;20036;-73
2021/12/13 07:01:36;;;;;;;30.80;11.02;;;;;;;;;;5068988;28;20043;-74
2021/12/13 07:04:07;;;;;;;39.88;14.55;;;;;;;;;;5068658;28;20031;-73
2021/12/13 07:06:33;;;;;;;60.20;18.50;;;;;;;;;;5070416;28;20024;-73
2021/12/13 07:09:02;;;;;;;90.20;35.95;;;;;;;;;;5070653;28;20397;-73
2021/12/13 07:11:38;;;;;;;46.55;14.00;;;;;;;;;;5069041;28;20020;-73
2021/12/13 07:14:07;;;;;;;41.70;17.40;;;;;;;;;;5068901;28;20025;-73
2021/12/13 07:16:39;;;;;;;126.10;46.28;;;;;;;;;;5068683;28;20481;-73
2021/12/13 07:19:18;;;;;;;102.32;44.78;;;;;;;;;;5070001;28;20021;-73
2021/12/13 07:21:47;;;;;;;54.63;21.38;;;;;;;;;;5052575;28;20046;-73
2021/12/13 07:24:18;;;;;;;32.65;12.88;;;;;;;;;;5071737;28;20033;-73
2021/12/13 07:26:54;;;;;;;35.13;13.10;;;;;;;;;;5071149;28;20020;-73
2021/12/13 07:29:23;;;;;;;71.70;27.02;;;;;;;;;;5070698;28;20058;-74
2021/12/13 07:32:09;;;;;;;33.63;12.02;;;;;;;;;;5067561;28;20039;-74
2021/12/13 07:34:55;;;;;;;29.45;12.50;;;;;;;;;;5047859;28;20509;-73
2021/12/13 07:37:33;;;;;;;26.85;11.77;;;;;;;;;;5067995;28;20033;-73
2021/12/13 07:40:17;;;;;;;74.70;29.40;;;;;;;;;;5070301;28;20043;-73
2021/12/13 07:43:09;;;;;;;135.65;53.35;;;;;;;;;;5057069;28;20028;-73
2021/12/13 07:45:48;;;;;;;50.45;20.17;;;;;;;;;;5070577;28;20404;-73
2021/12/13 07:48:26;;;;;;;39.88;17.65;;;;;;;;;;5071854;28;20057;-73
2021/12/13 07:51:10;;;;;;;23.95;12.32;;;;;;;;;;5073484;28;20027;-73
2021/12/13 07:53:39;;;;;;;17.45;7.75;;;;;;;;;;5072070;28;20031;-73
2021/12/13 07:56:05;;;;;;;13.15;7.20;;;;;;;;;;5072488;28;20035;-72
2021/12/13 07:58:34;;;;;;;16.15;7.18;;;;;;;;;;5073364;28;20025;-73
2021/12/13 08:01:07;;;;;;;29.23;15.38;;;;;;;;;;5072218;28;20020;-73
2021/12/13 08:03:34;;;;;;;19.77;9.95;;;;;;;;;;5074281;28;20058;-73
2021/12/13 08:06:05;;;;;;;25.35;13.40;;;;;;;;;;5074397;28;20020;-73
2021/12/13 08:08:34;;;;;;;27.20;11.27;;;;;;;;;;5071999;28;20040;-73
2021/12/13 08:11:01;;;;;;;16.27;7.18;;;;;;;;;;5070925;28;20043;-74
2021/12/13 08:13:30;;;;;;;14.98;6.82;;;;;;;;;;5070666;28;20040;-73
2021/12/13 08:16:02;;;;;;;18.40;8.68;;;;;;;;;;5068741;28;20073;-73
2021/12/13 08:18:30;;;;;;;21.98;10.13;;;;;;;;;;5072362;28;20520;-74
2021/12/13 08:21:00;;;;;;;15.10;8.85;;;;;;;;;;5071375;28;20066;-74
2021/12/13 08:23:29;;;;;;;15.40;8.40;;;;;;;;;;5070444;28;20520;-74
2021/12/13 08:25:59;;;;;;;13.60;7.43;;;;;;;;;;5070572;28;20029;-74
2021/12/13 08:28:43;;;;;;;17.83;9.88;;;;;;;;;;5069580;28;20030;-74
2021/12/13 08:31:11;;;;;;;14.75;8.38;;;;;;;;;;5070590;28;20035;-73
2021/12/13 08:33:44;;;;;;;13.20;7.72;;;;;;;;;;5071307;28;20025;-73
2021/12/13 08:36:13;;;;;;;17.98;9.25;;;;;;;;;;5073782;28;20020;-73
2021/12/13 08:38:45;;;;;;;16.95;8.82;;;;;;;;;;5070463;28;20028;-74
2021/12/13 08:41:20;;;;;;;15.50;8.18;;;;;;;;;;5070361;28;20029;-74
2021/12/13 08:43:56;;;;;;;14.60;8.65;;;;;;;;;;5081675;28;20051;-74
2021/12/13 08:46:32;;;;;;;12.80;8.23;;;;;;;;;;5059881;28;20035;-74
2021/12/13 08:48:58;;;;;;;12.75;8.13;;;;;;;;;;5070362;28;20035;-74
2021/12/13 08:51:27;;;;;;;11.55;7.00;;;;;;;;;;5072326;28;20497;-74
2021/12/13 08:54:09;;;;;;;15.27;8.50;;;;;;;;;;5071167;28;20406;-74
2021/12/13 08:56:41;;;;;;;27.77;11.50;;;;;;;;;;5070201;28;20039;-74
2021/12/13 08:59:10;;;;;;;29.27;12.43;;;;;;;;;;5070183;28;20031;-74
2021/12/13 09:01:48;;;;;;;19.15;10.98;;;;;;;;;;5069639;28;20033;-74
2021/12/13 09:04:23;;;;;;;37.00;15.10;;;;;;;;;;5069974;28;20036;-73
2021/12/13 09:06:53;;;;;;;35.90;14.40;;;;;;;;;;5063482;28;20043;-73
2021/12/13 09:09:20;;;;;;;31.08;13.13;;;;;;;;;;5072888;28;20423;-74
2021/12/13 09:11:59;;;;;;;22.20;12.30;;;;;;;;;;5071903;28;20025;-74
2021/12/13 09:14:25;;;;;;;23.80;12.85;;;;;;;;;;5069978;28;20017;-74
2021/12/13 09:17:06;;;;;;;28.38;13.45;;;;;;;;;;5071281;28;20371;-73
2021/12/13 09:19:42;;;;;;;20.23;12.73;;;;;;;;;;5069249;28;20032;-74
2021/12/13 09:22:12;;;;;;;26.17;14.45;;;;;;;;;;5068361;28;20524;-74
2021/12/13 09:24:47;;;;;;;28.73;14.73;;;;;;;;;;5070816;28;20021;-74
2021/12/13 09:27:13;;;;;;;21.67;12.82;;;;;;;;;;5068992;28;20385;-73
2021/12/13 09:30:06;;;;;;;19.67;10.82;;;;;;;;;;5069596;28;20024;-75
2021/12/13 09:44:54;;;;;;;20.10;10.45;;;;;;;;;;5147533;27;20400;-75
2021/12/13 09:47:22;;;;;;;19.05;11.63;;;;;;;;;;5146645;27;20072;-74
2021/12/13 09:49:57;;;;;;;16.40;10.40;;;;;;;;;;5146332;27;20026;-74
2021/12/13 09:52:35;;;;;;;15.20;9.18;;;;;;;;;;5145496;27;20042;-74
2021/12/13 09:55:17;;;;;;;12.20;7.07;;;;;;;;;;5146018;27;20026;-75
2021/12/13 09:57:52;;;;;;;10.30;6.20;;;;;;;;;;5119360;27;20019;-74
2021/12/13 10:00:28;;;;;;;8.38;5.30;;;;;;;;;;5145065;27;20104;-74
2021/12/13 10:02:57;;;;;;;9.15;5.95;;;;;;;;;;5148326;27;20071;-74
2021/12/13 10:05:26;;;;;;;10.45;6.57;;;;;;;;;;5145769;27;20030;-74
2021/12/13 10:07:55;;;;;;;8.30;5.18;;;;;;;;;;5145252;27;20011;-75
2021/12/13 10:10:26;;;;;;;11.93;4.47;;;;;;;;;;5145900;27;20027;-74
2021/12/13 10:12:55;;;;;;;8.15;4.50;;;;;;;;;;5129498;27;20033;-74
2021/12/13 10:15:27;;;;;;;9.30;4.90;;;;;;;;;;5149065;27;20023;-74
2021/12/13 10:17:56;;;;;;;8.70;4.47;;;;;;;;;;5148004;27;20037;-74
2021/12/13 10:20:25;;;;;;;6.00;4.15;;;;;;;;;;5144480;27;20100;-74
2021/12/13 10:22:52;;;;;;;9.02;5.55;;;;;;;;;;5145084;27;20025;-74
2021/12/13 10:25:44;;;;;;;11.07;5.20;;;;;;;;;;5145207;27;20021;-74
2021/12/13 10:28:14;;;;;;;5.93;3.55;;;;;;;;;;5128514;27;20546;-73
2021/12/13 10:30:44;;;;;;;5.07;3.47;;;;;;;;;;5147101;27;20037;-74
2021/12/13 10:33:10;;;;;;;5.53;3.20;;;;;;;;;;5147561;27;20415;-74
2021/12/13 10:35:40;;;;;;;3.85;1.92;;;;;;;;;;5126262;27;20027;-74
2021/12/13 10:38:17;;;;;;;3.28;2.40;;;;;;;;;;5145332;27;20377;-74
2021/12/13 10:40:46;;;;;;;2.28;2.08;;;;;;;;;;5145059;27;20015;-74
2021/12/13 10:43:18;;;;;;;5.88;2.70;;;;;;;;;;5144845;27;20043;-74
2021/12/13 10:45:44;;;;;;;;;;;;;;;;;;5132186;27;20407;-74
2021/12/13 10:48:12;;;;;;;7.18;3.92;;;;;;;;;;5133811;27;19977;-74
2021/12/13 10:50:43;;;;;;;3.78;2.58;;;;;;;;;;5130828;27;20027;-74
2021/12/13 10:53:11;;;;;;;5.32;2.60;;;;;;;;;;5131086;27;20492;-73
2021/12/13 10:55:44;;;;;;;3.80;2.97;;;;;;;;;;5132305;27;20015;-74
2021/12/13 10:58:16;;;;;;;5.10;3.20;;;;;;;;;;5130986;27;20396;-74
2021/12/13 11:00:45;;;;;;;3.85;3.08;;;;;;;;;;5132674;27;20040;-74
2021/12/13 11:03:15;;;;;;;2.95;2.65;;;;;;;;;;5133448;27;20031;-74
2021/12/13 11:05:43;;;;;;;8.32;3.20;;;;;;;;;;5130344;27;20092;-74
2021/12/13 11:08:12;;;;;;;5.65;2.75;;;;;;;;;;5127693;27;20041;-74
2021/12/13 11:10:43;;;;;;;5.00;2.60;;;;;;;;;;5130257;27;20031;-74
2021/12/13 11:13:10;;;;;;;10.77;3.92;;;;;;;;;;5130230;27;20404;-74
2021/12/13 11:15:38;;;;;;;7.40;5.07;;;;;;;;;;5132855;27;20023;-74
2021/12/13 11:18:06;;;;;;;12.98;4.93;;;;;;;;;;5131034;27;20483;-74
2021/12/13 11:20:35;;;;;;;9.07;3.60;;;;;;;;;;5130397;27;20404;-73
2021/12/13 11:23:02;;;;;;;3.00;2.42;;;;;;;;;;5130366;27;20040;-73
2021/12/13 11:25:33;;;;;;;3.65;2.75;;;;;;;;;;5130130;27;20053;-74
2021/12/13 11:28:00;;;;;;;5.90;2.70;;;;;;;;;;5129537;27;20370;-74
2021/12/13 11:30:28;;;;;;;2.58;2.20;;;;;;;;;;5132751;27;20041;-74
2021/12/13 11:32:57;;;;;;;2.92;2.40;;;;;;;;;;5130812;27;20509;-73
2021/12/13 11:35:42;;;;;;;2.88;2.28;;;;;;;;;;5131551;27;20023;-74
2021/12/13 11:38:10;;;;;;;3.30;2.55;;;;;;;;;;5130146;27;20296;-74
2021/12/13 11:40:39;;;;;;;4.72;3.45;;;;;;;;;;5130590;27;20037;-74
2021/12/13 11:43:11;;;;;;;3.58;2.88;;;;;;;;;;5129956;27;20048;-73
2021/12/13 11:45:48;;;;;;;3.40;2.70;;;;;;;;;;5131953;27;20027;-74
2021/12/13 11:48:24;;;;;;;6.95;2.33;;;;;;;;;;5132388;27;20031;-74
2021/12/13 11:51:02;;;;;;;4.95;2.58;;;;;;;;;;5129667;27;20027;-74
2021/12/13 11:53:28;;;;;;;3.20;2.47;;;;;;;;;;5129469;27;20035;-74
2021/12/13 11:56:13;;;;;;;3.25;2.15;;;;;;;;;;5128554;27;20027;-73
2021/12/13 11:58:58;;;;;;;2.50;2.13;;;;;;;;;;5129862;27;20035;-74
2021/12/13 12:01:45;;;;;;;5.65;2.60;;;;;;;;;;5129674;27;20025;-73
2021/12/13 12:04:30;;;;;;;3.33;2.67;;;;;;;;;;5099905;27;20443;-74
2021/12/13 12:07:12;;;;;;;4.60;2.55;;;;;;;;;;5114014;27;20026;-74
2021/12/13 12:09:57;;;;;;;2.80;2.10;;;;;;;;;;5131587;27;20027;-74
2021/12/13 12:12:35;;;;;;;5.47;2.60;;;;;;;;;;5128295;27;20076;-74
2021/12/13 12:15:03;;;;;;;6.80;2.17;;;;;;;;;;5132607;27;20411;-74
2021/12/13 12:17:31;;;;;;;3.78;2.50;;;;;;;;;;5128948;27;20394;-73
2021/12/13 12:19:58;;;;;;;7.28;2.20;;;;;;;;;;5129220;27;20446;-72
2021/12/13 12:22:31;;;;;;;4.78;2.88;;;;;;;;;;5129230;27;20027;-73
2021/12/13 12:24:59;;;;;;;2.85;2.20;;;;;;;;;;5114152;27;20026;-74
2021/12/13 12:27:30;;;;;;;3.95;2.40;;;;;;;;;;5133041;27;20030;-73
2021/12/13 12:29:59;;;;;;;3.35;2.58;;;;;;;;;;5132768;27;20392;-74
2021/12/13 12:32:35;;;;;;;4.00;2.50;;;;;;;;;;5129361;27;20044;-73
2021/12/13 12:35:01;;;;;;;5.72;2.95;;;;;;;;;;5129845;27;20039;-73
2021/12/13 12:37:29;;;;;;;5.63;3.63;;;;;;;;;;5129812;27;20027;-74
2021/12/13 12:40:08;;;;;;;4.30;2.95;;;;;;;;;;5129870;27;20469;-74
2021/12/13 12:42:36;;;;;;;5.00;3.20;;;;;;;;;;5132071;27;20043;-73
2021/12/13 12:45:09;;;;;;;4.35;3.08;;;;;;;;;;5129889;27;20091;-74
2021/12/13 12:47:35;;;;;;;6.25;2.90;;;;;;;;;;5129395;27;20030;-73
2021/12/13 12:50:13;;;;;;;3.75;2.67;;;;;;;;;;5128777;27;20404;-74
2021/12/13 12:52:50;;;;;;;4.05;2.75;;;;;;;;;;5112504;27;20041;-73
2021/12/13 12:55:18;;;;;;;6.00;2.88;;;;;;;;;;5129232;27;20354;-73
2021/12/13 12:57:44;;;;;;;3.58;2.40;;;;;;;;;;5130817;27;20023;-74
2021/12/13 13:00:11;;;;;;;4.55;2.20;;;;;;;;;;5125950;27;20035;-74
2021/12/13 13:02:38;;;;;;;4.95;2.33;;;;;;;;;;5127847;27;20041;-73
2021/12/13 13:05:06;;;;;;;9.25;2.30;;;;;;;;;;5125443;27;20111;-74
2021/12/13 13:07:39;;;;;;;5.20;2.22;;;;;;;;;;5125423;27;20034;-73
2021/12/13 13:10:28;;;;;;;6.68;1.90;;;;;;;;;;5128826;27;20032;-73
2021/12/13 13:12:56;;;;;;;3.80;1.83;;;;;;;;;;5112364;27;20572;-73
2021/12/13 13:15:24;;;;;;;3.55;1.80;;;;;;;;;;5131419;27;20425;-74
2021/12/13 13:17:57;;;;;;;3.22;2.10;;;;;;;;;;5128801;27;20103;-73
2021/12/13 13:20:26;;;;;;;3.20;1.70;;;;;;;;;;5128344;27;20069;-74
2021/12/13 13:22:54;;;;;;;3.15;2.50;;;;;;;;;;5128139;27;20433;-73
2021/12/13 13:25:29;;;;;;;2.45;1.70;;;;;;;;;;5128397;27;20023;-73
2021/12/13 13:27:57;;;;;;;3.28;2.08;;;;;;;;;;5095117;28;20034;-73
2021/12/13 13:30:24;;;;;;;3.53;2.13;;;;;;;;;;5130995;27;20015;-74
2021/12/13 13:32:50;;;;;;;2.88;2.10;;;;;;;;;;5130324;28;20075;-73
2021/12/13 13:35:17;;;;;;;3.08;2.08;;;;;;;;;;5128264;28;20035;-74
2021/12/13 13:37:44;;;;;;;2.30;1.80;;;;;;;;;;5128149;27;20037;-73
2021/12/13 13:40:13;;;;;;;5.72;2.22;;;;;;;;;;5128173;28;20523;-73
2021/12/13 13:42:44;;;;;;;3.85;2.60;;;;;;;;;;5129803;28;20032;-73
2021/12/13 13:45:25;;;;;;;6.00;2.85;;;;;;;;;;5128875;28;20411;-73
2021/12/13 13:47:54;;;;;;;7.78;3.03;;;;;;;;;;5128522;28;20083;-73
2021/12/13 13:50:21;;;;;;;4.43;2.40;;;;;;;;;;5109353;28;20046;-73
2021/12/13 13:52:48;;;;;;;3.55;2.45;;;;;;;;;;5128022;28;20039;-73
2021/12/13 13:55:26;;;;;;;3.22;2.15;;;;;;;;;;5127899;28;20041;-73
2021/12/13 13:57:54;;;;;;;3.70;1.83;;;;;;;;;;5111756;28;20548;-73
2021/12/13 14:00:21;;;;;;;3.22;1.75;;;;;;;;;;5127092;28;20027;-73
2021/12/13 14:02:48;;;;;;;19.60;9.80;;;;;;;;;;5128106;28;20025;-73
2021/12/13 14:05:14;;;;;;;12.02;5.68;;;;;;;;;;5127803;28;20033;-73
2021/12/13 14:07:42;;;;;;;31.58;10.05;;;;;;;;;;5127691;28;20023;-73
2021/12/13 14:10:11;;;;;;;5.80;2.63;;;;;;;;;;5129535;28;20022;-73
2021/12/13 14:12:41;;;;;;;4.38;2.75;;;;;;;;;;5129673;28;20030;-73
2021/12/13 14:15:10;;;;;;;3.40;2.35;;;;;;;;;;5111461;28;20437;-73
2021/12/13 14:17:36;;;;;;;4.43;2.15;;;;;;;;;;5127438;27;20027;-73
2021/12/13 14:20:14;;;;;;;3.00;2.05;;;;;;;;;;5130080;27;20027;-73
2021/12/13 14:22:41;;;;;;;4.18;2.10;;;;;;;;;;5131806;27;20019;-73
2021/12/13 14:25:07;;;;;;;4.35;2.00;;;;;;;;;;5131634;27;20027;-73
2021/12/13 14:27:34;;;;;;;10.45;2.25;;;;;;;;;;5133666;27;20027;-73
2021/12/13 14:30:20;;;;;;;8.52;2.47;;;;;;;;;;5132597;27;20363;-73
2021/12/13 14:32:48;;;;;;;17.52;2.80;;;;;;;;;;5131904;27;20069;-73
2021/12/13 14:35:14;;;;;;;8.60;2.78;;;;;;;;;;5131391;27;20022;-73
2021/12/13 14:37:41;;;;;;;4.28;2.60;;;;;;;;;;5131253;27;20019;-73
2021/12/13 14:40:07;;;;;;;6.40;3.22;;;;;;;;;;5131360;27;20521;-73
2021/12/13 14:42:35;;;;;;;7.68;2.92;;;;;;;;;;5114312;27;20050;-73
2021/12/13 14:45:06;;;;;;;5.82;3.10;;;;;;;;;;5132257;27;20034;-73
2021/12/13 14:47:39;;;;;;;6.63;3.15;;;;;;;;;;5130874;27;20019;-73
2021/12/13 14:50:14;;;;;;;4.10;3.28;;;;;;;;;;5132665;27;20037;-73
2021/12/13 14:52:46;;;;;;;7.35;3.40;;;;;;;;;;5130886;27;20031;-73
2021/12/13 14:55:14;;;;;;;9.63;3.63;;;;;;;;;;5131102;27;20038;-73
2021/12/13 14:57:41;;;;;;;6.97;3.30;;;;;;;;;;5132245;27;20063;-73
2021/12/13 15:00:16;;;;;;;6.93;3.33;;;;;;;;;;5133049;27;20514;-73
2021/12/13 15:03:04;;;;;;;8.60;3.65;;;;;;;;;;5130766;27;20027;-73
2021/12/13 15:05:34;;;;;;;5.20;3.53;;;;;;;;;;5130858;27;20024;-73
2021/12/13 15:08:02;;;;;;;5.85;3.88;;;;;;;;;;5131172;27;20395;-73
2021/12/13 15:10:31;;;;;;;4.53;3.28;;;;;;;;;;5130492;27;20011;-73
2021/12/13 15:12:59;;;;;;;6.38;2.72;;;;;;;;;;5130359;27;20027;-73
2021/12/13 15:15:32;;;;;;;4.40;2.90;;;;;;;;;;5133537;27;20023;-73
2021/12/13 15:18:09;;;;;;;4.32;2.95;;;;;;;;;;5133347;27;20406;-73
2021/12/13 15:20:38;;;;;;;6.72;3.40;;;;;;;;;;5130079;27;20019;-73
2021/12/13 15:23:07;;;;;;;5.15;3.17;;;;;;;;;;5130539;27;20035;-73
2021/12/13 15:25:44;;;;;;;15.75;4.45;;;;;;;;;;5129957;27;20011;-73